Hlavní strana
METAR-TAF:

METAR-TAF

Letiště :

Letecká základna

Tulln an der Donau, Rakousko

zeměpisná šířka: 48-19N, zeměpisná délka: 016-07E, výška: 175 m

METAR: chybějící

Čas: 13:35 (11:35 UTC)

Předpověď počasí

Zpráva byla vytvořena před 3 hodinami a 20 minutami, v 08:15 UTC
Předpověď platná od 15 v 09 UTC do 15 v 18 UTC
Jihovýchodní vítr 12 kt
Viditelnost 10 km a více
Skoro jasno ve výšce 15000 ft
Oblačno až skoro zataženo ve výšce 30000 ft
Dočasný
od 15 v 09 UTC do 15 v 18 UTC
Jihovýchodní vítr 15 kt s nárazy do 25 kt

TAF: LOXT 150815Z 1509/1518 13012KT 9999 FEW150 BKN300 TEMPO 1509/1518 14015G25KT

Stav a předpovědi počasí z více než 4 000 letišť (zprávy METAR a TAF).

Červené a žluté tečky na mapě představují dostupné meteorologické stanice.

Když kurzor umístíte na tečku, zobrazí se název stanice.

Pak kliknutím zobrazíte stav a předpověď počasí.

Chcete-li změnit mapu, kliknutím na zelené tlačítko se znaménkem +mapu přiblížíte, kliknutím na zelené tlačítko se znaménkem – mapu oddálíte a kliknutím na zelené šipky přejdete na sousední mapy.


METAR-TAF: